createdAt,value
2018-01-04T00:01:20.225Z,9.27
2018-01-04T00:03:47.729Z,9.29
2018-01-04T00:06:15.494Z,9.23
2018-01-04T00:08:43.002Z,9.13
2018-01-04T00:11:10.502Z,9.11
2018-01-04T00:13:38.065Z,9.09
2018-01-04T00:16:05.574Z,9.18
2018-01-04T00:18:33.082Z,9.01
2018-01-04T00:21:00.958Z,9.07
2018-01-04T00:23:28.517Z,9.10
2018-01-04T00:25:56.021Z,9.24
2018-01-04T00:28:24.660Z,9.18
2018-01-04T00:30:52.169Z,9.36
2018-01-04T00:33:19.671Z,9.36
2018-01-04T00:35:47.337Z,8.88
2018-01-04T00:38:14.840Z,8.59
2018-01-04T00:40:42.337Z,8.94
2018-01-04T00:43:10.185Z,8.55
2018-01-04T00:45:37.693Z,8.72
2018-01-04T00:48:05.234Z,8.63
2018-01-04T00:50:32.809Z,8.62
2018-01-04T00:53:00.365Z,8.53
2018-01-04T00:55:27.870Z,8.46
2018-01-04T00:57:55.413Z,8.08
2018-01-04T01:00:22.928Z,8.57
2018-01-04T01:02:50.487Z,8.71
2018-01-04T01:05:18.353Z,8.64
2018-01-04T01:07:45.912Z,8.60
2018-01-04T01:10:13.413Z,8.45
2018-01-04T01:12:41.224Z,8.80
2018-01-04T01:15:08.733Z,8.53
2018-01-04T01:17:36.277Z,8.66
2018-01-04T01:20:04.196Z,8.90
2018-01-04T01:22:31.698Z,8.79
2018-01-04T01:24:59.235Z,9.15
2018-01-04T01:27:27.134Z,9.10
2018-01-04T01:29:54.637Z,9.11
2018-01-04T01:32:22.153Z,8.85
2018-01-04T01:34:49.881Z,8.82
2018-01-04T01:37:17.382Z,8.71
2018-01-04T01:39:44.896Z,8.74
2018-01-04T01:42:12.634Z,8.34
2018-01-04T01:44:40.117Z,8.53
2018-01-04T01:47:07.622Z,8.30
2018-01-04T01:49:35.338Z,8.43
2018-01-04T01:52:02.842Z,8.50
2018-01-04T01:54:30.352Z,8.55
2018-01-04T01:56:57.922Z,8.56
2018-01-04T01:59:25.424Z,8.52
2018-01-04T02:01:52.925Z,8.05
2018-01-04T02:04:20.795Z,8.08
2018-01-04T02:06:48.294Z,8.33
2018-01-04T02:09:15.793Z,8.04
2018-01-04T02:11:43.369Z,8.17
2018-01-04T02:14:10.873Z,8.19
2018-01-04T02:16:38.386Z,8.28
2018-01-04T02:19:18.130Z,7.99
2018-01-04T02:21:57.478Z,8.04
2018-01-04T02:24:37.005Z,8.33
2018-01-04T02:27:16.546Z,8.04
2018-01-04T02:29:56.260Z,7.69
2018-01-04T02:32:35.830Z,7.70
2018-01-04T02:35:20.334Z,7.79
2018-01-04T02:37:59.636Z,7.89
2018-01-04T02:40:39.237Z,7.96
2018-01-04T02:43:18.617Z,8.02
2018-01-04T02:45:58.038Z,8.06
2018-01-04T02:48:26.518Z,8.04
2018-01-04T02:50:54.014Z,7.91
2018-01-04T02:53:21.613Z,8.22
2018-01-04T02:55:49.117Z,8.15
2018-01-04T02:58:16.650Z,8.03
2018-01-04T03:00:44.388Z,8.43
2018-01-04T03:03:11.898Z,8.44
2018-01-04T03:05:39.408Z,7.95
2018-01-04T03:08:06.932Z,8.12
2018-01-04T03:10:34.451Z,8.24
2018-01-04T03:13:01.956Z,8.21
2018-01-04T03:15:29.665Z,8.36
2018-01-04T03:17:57.165Z,8.36
2018-01-04T03:20:24.683Z,8.35
2018-01-04T03:22:57.770Z,7.89
2018-01-04T03:25:30.976Z,8.21
2018-01-04T03:28:04.154Z,8.63
2018-01-04T03:30:37.289Z,8.49
2018-01-04T03:33:10.417Z,8.36
2018-01-04T03:35:43.568Z,8.74
2018-01-04T03:38:16.677Z,8.72
2018-01-04T03:40:49.728Z,8.71
2018-01-04T03:43:22.878Z,8.37
2018-01-04T03:45:56.009Z,8.40
2018-01-04T03:48:27.373Z,8.22
2018-01-04T03:51:00.472Z,8.27
2018-01-04T03:53:33.610Z,8.25
2018-01-04T03:56:06.797Z,8.53
2018-01-04T03:58:40.499Z,8.43
2018-01-04T04:01:13.690Z,8.58
2018-01-04T04:03:41.455Z,8.46
2018-01-04T04:06:14.444Z,8.73
2018-01-04T04:08:44.836Z,8.74
2018-01-04T04:11:12.345Z,8.45
2018-01-04T04:13:39.890Z,8.71
2018-01-04T04:16:07.748Z,8.86
2018-01-04T04:18:35.244Z,8.66
2018-01-04T04:21:02.749Z,8.66
2018-01-04T04:23:30.429Z,8.81
2018-01-04T04:25:57.938Z,8.91
2018-01-04T04:28:25.454Z,8.82
2018-01-04T04:30:53.361Z,8.66
2018-01-04T04:33:21.380Z,8.80
2018-01-04T04:35:48.882Z,8.33
2018-01-04T04:38:16.704Z,8.70
2018-01-04T04:40:44.207Z,8.55
2018-01-04T04:43:11.719Z,8.46
2018-01-04T04:45:39.456Z,8.30
2018-01-04T04:48:06.961Z,8.48
2018-01-04T04:50:34.461Z,8.53
2018-01-04T04:53:02.364Z,8.25
2018-01-04T04:55:29.861Z,8.17
2018-01-04T04:57:57.365Z,8.05
2018-01-04T05:00:25.246Z,7.89
2018-01-04T05:02:52.744Z,7.81
2018-01-04T05:05:20.264Z,7.86
2018-01-04T05:07:47.996Z,7.93
2018-01-04T05:10:15.588Z,7.98
2018-01-04T05:12:43.084Z,8.16
2018-01-04T05:15:10.909Z,8.12
2018-01-04T05:17:41.762Z,8.20
2018-01-04T05:20:09.325Z,8.12
2018-01-04T05:22:36.877Z,8.34
2018-01-04T05:25:04.370Z,8.04
2018-01-04T05:27:31.874Z,8.10
2018-01-04T05:29:59.608Z,8.29
2018-01-04T05:32:27.104Z,8.08
2018-01-04T05:34:54.597Z,8.37
2018-01-04T05:37:22.594Z,7.97
2018-01-04T05:39:50.090Z,7.93
2018-01-04T05:42:18.565Z,8.15
2018-01-04T05:44:46.328Z,8.03
2018-01-04T05:47:13.833Z,8.02
2018-01-04T05:49:41.344Z,7.81
2018-01-04T05:52:08.880Z,7.95
2018-01-04T05:54:36.392Z,7.96
2018-01-04T05:57:03.902Z,7.96
2018-01-04T05:59:31.480Z,7.70
2018-01-04T06:01:58.984Z,7.71
2018-01-04T06:04:26.486Z,7.83
2018-01-04T06:06:54.253Z,7.97
2018-01-04T06:09:21.750Z,8.06
2018-01-04T06:11:49.274Z,8.01
2018-01-04T06:14:17.014Z,8.10
2018-01-04T06:16:44.619Z,7.94
2018-01-04T06:19:12.081Z,8.15
2018-01-04T06:21:39.633Z,7.90
2018-01-04T06:24:07.170Z,7.93
2018-01-04T06:26:34.675Z,7.98
2018-01-04T06:29:02.250Z,8.18
2018-01-04T06:31:29.759Z,8.21
2018-01-04T06:33:57.307Z,7.80
2018-01-04T06:36:24.863Z,8.39
2018-01-04T06:38:52.356Z,8.07
2018-01-04T06:41:19.880Z,8.11
2018-01-04T06:43:47.850Z,8.20
2018-01-04T06:46:15.348Z,8.06
2018-01-04T06:48:42.848Z,8.04
2018-01-04T06:51:10.423Z,8.27
2018-01-04T06:53:37.928Z,8.30
2018-01-04T06:56:05.435Z,8.10
2018-01-04T06:58:33.203Z,8.34
2018-01-04T07:01:00.726Z,8.46
2018-01-04T07:03:28.220Z,8.33
2018-01-04T07:05:55.982Z,8.11
2018-01-04T07:08:23.486Z,8.43
2018-01-04T07:10:50.999Z,8.38
2018-01-04T07:13:18.621Z,8.17
2018-01-04T07:15:46.123Z,8.13
2018-01-04T07:18:13.676Z,8.34
2018-01-04T07:20:41.440Z,8.42
2018-01-04T07:23:08.948Z,8.49
2018-01-04T07:25:36.444Z,8.69
2018-01-04T07:28:04.014Z,8.71
2018-01-04T07:30:31.521Z,8.71
2018-01-04T07:32:59.031Z,8.59
2018-01-04T07:35:26.604Z,8.84
2018-01-04T07:37:54.559Z,8.53
2018-01-04T07:40:22.074Z,8.65
2018-01-04T07:42:49.622Z,8.20
2018-01-04T07:45:17.125Z,8.28
2018-01-04T07:47:44.637Z,8.49
2018-01-04T07:50:12.178Z,8.33
2018-01-04T07:52:39.707Z,8.03
2018-01-04T07:55:07.205Z,8.19
2018-01-04T07:57:34.761Z,8.50
2018-01-04T08:00:02.387Z,8.50
2018-01-04T08:02:29.885Z,8.52
2018-01-04T08:04:57.429Z,8.34
2018-01-04T08:07:24.977Z,8.28
2018-01-04T08:09:52.520Z,8.24
2018-01-04T08:12:20.254Z,8.50
2018-01-04T08:14:47.773Z,8.39
2018-01-04T08:17:16.133Z,8.54
2018-01-04T08:19:43.984Z,8.44
2018-01-04T08:22:11.673Z,8.31
2018-01-04T08:24:39.210Z,8.40
2018-01-04T08:27:07.761Z,8.46
2018-01-04T08:29:35.269Z,8.58
2018-01-04T08:32:03.834Z,8.51
2018-01-04T08:34:31.600Z,8.50
2018-01-04T08:36:59.152Z,8.41
2018-01-04T08:39:27.224Z,8.54
2018-01-04T08:41:56.833Z,8.58
2018-01-04T08:44:25.824Z,8.36
2018-01-04T08:46:53.485Z,8.33
2018-01-04T08:49:22.703Z,8.53
2018-01-04T08:51:50.250Z,8.37
2018-01-04T08:54:17.803Z,8.43
2018-01-04T08:56:45.365Z,8.45
2018-01-04T08:59:12.956Z,8.42
2018-01-04T09:01:42.896Z,8.31
2018-01-04T09:04:10.447Z,8.27
2018-01-04T09:06:45.009Z,8.23
2018-01-04T09:09:12.678Z,8.53
2018-01-04T09:11:40.216Z,8.39
2018-01-04T09:14:07.873Z,8.36
2018-01-04T09:16:36.069Z,8.46
2018-01-04T09:19:04.365Z,8.51
2018-01-04T09:21:32.536Z,8.59
2018-01-04T09:24:00.076Z,8.56
2018-01-04T09:26:28.400Z,8.64
2018-01-04T09:28:56.669Z,8.33
2018-01-04T09:31:24.257Z,8.52
2018-01-04T09:33:51.797Z,8.39
2018-01-04T09:36:19.377Z,8.56
2018-01-04T09:38:48.097Z,8.40
2018-01-04T09:41:15.636Z,8.27
2018-01-04T09:43:43.726Z,8.55
2018-01-04T09:46:11.814Z,8.44
2018-01-04T09:48:39.325Z,8.44
2018-01-04T09:51:07.117Z,8.76
2018-01-04T09:53:34.950Z,8.71
2018-01-04T09:56:02.548Z,8.67
2018-01-04T09:58:30.108Z,8.51
2018-01-04T10:00:57.808Z,8.22
2018-01-04T10:03:25.437Z,8.72
2018-01-04T10:05:53.195Z,8.72
2018-01-04T10:08:20.957Z,8.81
2018-01-04T10:10:48.552Z,9.05
2018-01-04T10:13:16.282Z,8.92
2018-01-04T10:15:43.943Z,9.10
2018-01-04T10:18:11.450Z,8.85
2018-01-04T10:20:40.942Z,9.05
2018-01-04T10:23:08.513Z,9.28
2018-01-04T10:25:36.229Z,9.05
2018-01-04T10:28:04.614Z,9.27
2018-01-04T10:30:35.141Z,9.49
2018-01-04T10:33:02.861Z,9.43
2018-01-04T10:35:30.390Z,9.21
2018-01-04T10:37:57.929Z,9.49
2018-01-04T10:40:26.373Z,9.23
2018-01-04T10:42:54.039Z,9.43
2018-01-04T10:45:21.923Z,9.52
2018-01-04T10:47:49.482Z,9.65
2018-01-04T10:50:16.986Z,9.65
2018-01-04T10:52:44.600Z,9.57
2018-01-04T10:55:12.110Z,9.79
2018-01-04T10:57:39.616Z,9.68
2018-01-04T11:00:07.309Z,10.05
2018-01-04T11:02:34.838Z,9.83
2018-01-04T11:05:02.471Z,10.06
2018-01-04T11:07:30.063Z,9.89
2018-01-04T11:09:57.618Z,10.26
2018-01-04T11:12:25.114Z,9.95
2018-01-04T11:14:52.677Z,10.02
2018-01-04T11:17:20.188Z,10.28
2018-01-04T11:19:47.694Z,10.05
2018-01-04T11:22:15.586Z,9.82
2018-01-04T11:24:43.085Z,9.95
2018-01-04T11:27:10.641Z,10.19
2018-01-04T11:29:38.396Z,10.24
2018-01-04T11:32:05.903Z,10.04
2018-01-04T11:34:33.589Z,10.01
2018-01-04T11:37:01.130Z,9.94
2018-01-04T11:39:28.741Z,9.89
2018-01-04T11:41:57.301Z,10.13
2018-01-04T11:44:25.316Z,9.81
2018-01-04T11:46:53.564Z,9.68
2018-01-04T11:49:21.225Z,10.10
2018-01-04T11:51:48.784Z,10.04
2018-01-04T11:54:16.998Z,10.03
2018-01-04T11:56:44.525Z,9.81
2018-01-04T11:59:12.178Z,9.74
2018-01-04T12:01:39.922Z,9.54
2018-01-04T12:04:07.432Z,10.00
2018-01-04T12:06:35.133Z,10.19
2018-01-04T12:09:02.694Z,10.18
2018-01-04T12:11:30.197Z,10.40
2018-01-04T12:13:57.737Z,10.20
2018-01-04T12:16:25.296Z,10.28
2018-01-04T12:18:53.062Z,10.06
2018-01-04T12:21:20.619Z,10.39
2018-01-04T12:23:48.126Z,10.27
2018-01-04T12:26:15.648Z,10.05
2018-01-04T12:28:43.627Z,10.33
2018-01-04T12:31:11.164Z,10.08
2018-01-04T12:33:38.670Z,9.83
2018-01-04T12:36:06.385Z,10.01
2018-01-04T12:38:33.894Z,10.29
2018-01-04T12:41:02.544Z,10.43
2018-01-04T12:43:31.428Z,10.19
2018-01-04T12:46:02.134Z,10.30
2018-01-04T12:48:31.063Z,10.37
2018-01-04T12:50:59.727Z,10.44
2018-01-04T12:53:27.289Z,10.41
2018-01-04T12:55:55.151Z,10.18
2018-01-04T12:58:23.022Z,10.27
2018-01-04T13:00:50.576Z,10.44
2018-01-04T13:03:18.476Z,10.32
2018-01-04T13:05:46.837Z,10.35
2018-01-04T13:08:14.416Z,10.57
2018-01-04T13:10:43.350Z,10.53
2018-01-04T13:13:11.346Z,10.64
2018-01-04T13:15:40.952Z,10.74
2018-01-04T13:18:08.954Z,10.87
2018-01-04T13:20:36.480Z,10.90
2018-01-04T13:23:04.240Z,10.63
2018-01-04T13:25:32.692Z,10.62
2018-01-04T13:28:02.893Z,10.72
2018-01-04T13:30:30.710Z,10.97
2018-01-04T13:33:00.315Z,10.41
2018-01-04T13:35:28.198Z,10.64
2018-01-04T13:37:55.910Z,10.97
2018-01-04T13:40:25.346Z,10.80
2018-01-04T13:42:53.316Z,11.10
2018-01-04T13:45:20.956Z,11.27
2018-01-04T13:47:48.725Z,11.09
2018-01-04T13:50:17.940Z,11.05
2018-01-04T13:52:45.806Z,11.19
2018-01-04T13:55:13.749Z,11.39
2018-01-04T13:57:41.279Z,11.57
2018-01-04T14:00:08.893Z,11.59
2018-01-04T14:02:36.964Z,11.61
2018-01-04T14:05:04.645Z,11.70
2018-01-04T14:07:33.312Z,11.73
2018-01-04T14:10:00.868Z,12.06
2018-01-04T14:12:29.566Z,12.02
2018-01-04T14:14:57.217Z,12.03
2018-01-04T14:17:25.843Z,12.01
2018-01-04T14:19:53.396Z,11.74
2018-01-04T14:22:21.797Z,12.15
2018-01-04T14:24:50.301Z,11.95
2018-01-04T14:27:18.604Z,12.36
2018-01-04T14:29:49.966Z,12.54
2018-01-04T14:32:17.836Z,12.74
2018-01-04T14:34:46.304Z,12.75
2018-01-04T14:37:14.099Z,12.88
2018-01-04T14:39:41.679Z,12.80
2018-01-04T14:42:09.482Z,13.07
2018-01-04T14:44:38.347Z,13.46
2018-01-04T14:47:06.409Z,13.64
2018-01-04T14:49:35.202Z,13.61
2018-01-04T14:52:05.044Z,13.84
2018-01-04T14:54:32.827Z,13.77
2018-01-04T14:57:00.350Z,14.00
2018-01-04T14:59:27.866Z,14.09
2018-01-04T15:01:55.524Z,14.05
2018-01-04T15:04:23.037Z,13.99
2018-01-04T15:06:50.545Z,14.06
2018-01-04T15:09:18.233Z,13.95
2018-01-04T15:11:45.742Z,14.14
2018-01-04T15:14:13.282Z,14.03
2018-01-04T15:16:41.221Z,14.25
2018-01-04T15:19:08.725Z,14.12
2018-01-04T15:21:36.233Z,14.21
2018-01-04T15:24:03.825Z,14.16
2018-01-04T15:26:31.333Z,14.19
2018-01-04T15:28:58.840Z,14.18
2018-01-04T15:31:26.681Z,14.28
2018-01-04T15:33:54.203Z,14.09
2018-01-04T15:36:21.724Z,13.99
2018-01-04T15:38:49.490Z,14.29
2018-01-04T15:41:18.173Z,14.06
2018-01-04T15:43:45.829Z,14.20
2018-01-04T15:46:13.673Z,13.89
2018-01-04T15:48:41.170Z,14.10
2018-01-04T15:51:08.716Z,14.28
2018-01-04T15:53:36.658Z,14.14
2018-01-04T15:56:04.346Z,13.95
2018-01-04T15:58:31.905Z,14.21
2018-01-04T16:00:59.500Z,14.16
2018-01-04T16:03:27.025Z,14.13
2018-01-04T16:05:54.584Z,13.93
2018-01-04T16:08:22.449Z,14.07
2018-01-04T16:10:49.953Z,14.01
2018-01-04T16:13:17.465Z,13.99
2018-01-04T16:15:45.235Z,13.89
2018-01-04T16:18:12.834Z,14.01
2018-01-04T16:20:40.346Z,14.07
2018-01-04T16:23:08.112Z,14.05
2018-01-04T16:25:35.786Z,14.19
2018-01-04T16:28:03.341Z,14.07
2018-01-04T16:30:31.096Z,13.89
2018-01-04T16:32:58.656Z,14.13
2018-01-04T16:35:26.214Z,14.10
2018-01-04T16:37:53.773Z,14.04
2018-01-04T16:40:21.284Z,14.17
2018-01-04T16:42:48.807Z,14.33
2018-01-04T16:45:16.457Z,14.21
2018-01-04T16:47:44.420Z,14.23
2018-01-04T16:50:12.015Z,14.05
2018-01-04T16:52:39.800Z,14.00
2018-01-04T16:55:08.540Z,14.35
2018-01-04T16:57:36.195Z,14.15
2018-01-04T17:00:04.372Z,13.95
2018-01-04T17:02:33.159Z,13.87
2018-01-04T17:05:00.801Z,14.17
2018-01-04T17:07:28.496Z,13.91
2018-01-04T17:09:56.036Z,13.90
2018-01-04T17:12:23.539Z,13.76
2018-01-04T17:14:51.337Z,14.09
2018-01-04T17:17:18.846Z,14.02
2018-01-04T17:19:46.581Z,13.93
2018-01-04T17:22:14.150Z,13.98
2018-01-04T17:24:41.698Z,13.90
2018-01-04T17:27:09.226Z,14.13
2018-01-04T17:29:36.996Z,14.19
2018-01-04T17:32:04.589Z,13.76
2018-01-04T17:34:32.141Z,13.97
2018-01-04T17:36:59.920Z,13.99
2018-01-04T17:39:27.492Z,14.01
2018-01-04T17:41:55.023Z,14.29
2018-01-04T17:44:22.626Z,14.04
2018-01-04T17:46:50.243Z,14.22
2018-01-04T17:49:17.971Z,14.01
2018-01-04T17:51:45.875Z,13.97
2018-01-04T17:54:13.637Z,13.96
2018-01-04T17:56:41.504Z,13.95
2018-01-04T17:59:09.371Z,13.89
2018-01-04T18:01:37.158Z,14.08
2018-01-04T18:04:05.104Z,14.01
2018-01-04T18:06:32.917Z,14.19
2018-01-04T18:09:00.445Z,14.17
2018-01-04T18:11:28.182Z,14.12
2018-01-04T18:13:56.158Z,13.94
2018-01-04T18:16:24.026Z,13.98
2018-01-04T18:18:51.808Z,13.96
2018-01-04T18:21:19.963Z,14.11
2018-01-04T18:23:47.627Z,14.08
2018-01-04T18:26:15.489Z,13.88
2018-01-04T18:28:43.561Z,14.26
2018-01-04T18:31:11.313Z,14.38
2018-01-04T18:33:39.003Z,14.12
2018-01-04T18:36:06.956Z,14.06
2018-01-04T18:38:34.829Z,14.01
2018-01-04T18:41:02.592Z,13.98
2018-01-04T18:43:30.575Z,13.92
2018-01-04T18:45:58.137Z,13.79
2018-01-04T18:48:25.641Z,14.09
2018-01-04T18:50:53.641Z,13.81
2018-01-04T18:53:21.508Z,13.99
2018-01-04T18:55:49.069Z,13.68
2018-01-04T18:58:16.934Z,13.68
2018-01-04T19:00:44.701Z,13.61
2018-01-04T19:03:12.461Z,13.71
2018-01-04T19:05:40.433Z,13.66
2018-01-04T19:08:08.194Z,13.94
2018-01-04T19:10:35.969Z,13.80
2018-01-04T19:13:03.720Z,13.71
2018-01-04T19:15:31.485Z,13.57
2018-01-04T19:17:59.206Z,13.76
2018-01-04T19:20:27.423Z,13.52
2018-01-04T19:22:55.088Z,13.70
2018-01-04T19:25:22.750Z,13.75
2018-01-04T19:27:50.613Z,13.85
2018-01-04T19:30:18.480Z,13.51
2018-01-04T19:32:46.467Z,13.68
2018-01-04T19:35:14.826Z,13.64
2018-01-04T19:37:42.553Z,13.63
2018-01-04T19:40:10.567Z,13.48
2018-01-04T19:42:38.326Z,13.60
2018-01-04T19:45:06.096Z,13.84
2018-01-04T19:47:33.851Z,13.99
2018-01-04T19:50:01.545Z,13.83
2018-01-04T19:52:29.801Z,13.79
2018-01-04T19:54:57.556Z,13.51
2018-01-04T19:57:25.318Z,13.53
2018-01-04T19:59:52.988Z,13.88
2018-01-04T20:02:20.802Z,13.72
2018-01-04T20:04:48.512Z,13.55
2018-01-04T20:07:16.474Z,13.76
2018-01-04T20:09:44.339Z,13.94
2018-01-04T20:12:12.117Z,13.93
2018-01-04T20:14:40.035Z,13.80
2018-01-04T20:17:07.677Z,13.96
2018-01-04T20:19:35.320Z,13.95
2018-01-04T20:22:03.061Z,14.51
2018-01-04T20:24:30.925Z,14.33
2018-01-04T20:26:58.995Z,14.37
2018-01-04T20:29:27.067Z,14.38
2018-01-04T20:31:55.959Z,14.23
2018-01-04T20:34:23.734Z,13.66
2018-01-04T20:36:51.605Z,14.04
2018-01-04T20:39:19.402Z,13.44
2018-01-04T20:41:47.233Z,13.19
2018-01-04T20:44:16.315Z,13.29
2018-01-04T20:46:44.087Z,13.23
2018-01-04T20:49:12.119Z,13.05
2018-01-04T20:51:39.912Z,13.35
2018-01-04T20:54:07.983Z,13.28
2018-01-04T20:56:36.442Z,13.19
2018-01-04T20:59:04.746Z,13.24
2018-01-04T21:01:32.515Z,13.19
2018-01-04T21:04:00.370Z,13.13
2018-01-04T21:06:28.235Z,12.86
2018-01-04T21:08:56.010Z,12.87
2018-01-04T21:11:24.034Z,13.00
2018-01-04T21:13:51.888Z,12.79
2018-01-04T21:16:20.054Z,12.76
2018-01-04T21:18:47.874Z,12.80
2018-01-04T21:21:15.743Z,12.71
2018-01-04T21:23:43.608Z,12.68
2018-01-04T21:26:11.683Z,12.67
2018-01-04T21:28:39.545Z,12.23
2018-01-04T21:31:07.575Z,12.66
2018-01-04T21:33:35.948Z,12.55
2018-01-04T21:36:04.066Z,12.44
2018-01-04T21:38:31.728Z,12.37
2018-01-04T21:40:59.269Z,12.30
2018-01-04T21:43:27.046Z,12.21
2018-01-04T21:45:55.124Z,12.16
2018-01-04T21:48:23.299Z,12.45
2018-01-04T21:50:51.776Z,12.23
2018-01-04T21:53:19.746Z,11.89
2018-01-04T21:55:47.625Z,12.12
2018-01-04T21:58:15.477Z,11.60
2018-01-04T22:00:43.285Z,11.68
2018-01-04T22:03:11.518Z,11.62
2018-01-04T22:05:39.289Z,11.87
2018-01-04T22:08:07.197Z,12.26
2018-01-04T22:10:35.121Z,11.80
2018-01-04T22:13:02.715Z,11.82
2018-01-04T22:15:30.258Z,11.68
2018-01-04T22:17:57.896Z,11.86
2018-01-04T22:20:25.762Z,11.88
2018-01-04T22:22:53.366Z,11.29
2018-01-04T22:25:21.237Z,11.84
2018-01-04T22:27:49.168Z,11.47
2018-01-04T22:30:17.560Z,11.42
2018-01-04T22:32:45.300Z,11.63
2018-01-04T22:35:13.697Z,11.62
2018-01-04T22:37:41.371Z,11.38
2018-01-04T22:40:09.241Z,11.45
2018-01-04T22:42:38.213Z,11.18
2018-01-04T22:45:06.031Z,11.47
2018-01-04T22:47:33.845Z,11.43
2018-01-04T22:50:01.798Z,11.52
2018-01-04T22:52:29.398Z,11.34
2018-01-04T22:54:56.944Z,11.16
2018-01-04T22:57:24.661Z,11.27
2018-01-04T22:59:52.240Z,10.95
2018-01-04T23:02:20.498Z,11.05
2018-01-04T23:04:48.579Z,11.02
2018-01-04T23:07:16.098Z,10.87
2018-01-04T23:09:43.808Z,10.84
2018-01-04T23:12:11.673Z,10.81
2018-01-04T23:14:39.234Z,10.78
2018-01-04T23:17:06.891Z,10.95
2018-01-04T23:19:34.450Z,10.74
2018-01-04T23:22:01.961Z,10.72
2018-01-04T23:24:29.806Z,10.73
2018-01-04T23:26:57.321Z,10.87
2018-01-04T23:29:24.843Z,10.67
2018-01-04T23:31:52.754Z,10.76
2018-01-04T23:34:20.274Z,10.61
2018-01-04T23:36:47.793Z,10.68
2018-01-04T23:39:15.341Z,10.49
2018-01-04T23:41:42.897Z,10.68
2018-01-04T23:44:10.462Z,10.79
2018-01-04T23:46:38.026Z,10.68
2018-01-04T23:49:05.529Z,10.65
2018-01-04T23:51:33.033Z,10.73
2018-01-04T23:54:00.569Z,10.73
2018-01-04T23:56:28.085Z,10.62
2018-01-04T23:58:55.624Z,10.74
